KLAR

Laramie Regional Airport

Laramie, Wyoming, USA
KLAR 172320Z 1800/1824 16010KT P6SM VCTS BKN050CB BKN100 FM180100 22010KT P6SM SCT120 SCT250 FM181600 29015G25KT P6SM SCT250
Issued Valid From Valid To
Jul-17 @ 23:20 UTC
(6 hours ago)
Jul-18 @ 00:00 UTC
(5 hours ago)
Jul-19 @ 00:00 UTC
(in 19 hours)
Expired Click to View Jul-18 @ 00:00 to Jul-18 @ 01:00
KLAR 172320Z 1800/1824 16010KT P6SM VCTS BKN050CB BKN100
Wind Visibility Clouds Conditions
160° at 10 knots Greater than 6 miles
  • Broken at 5,000' AGL
  • Broken at 10,000' AGL
  • Area Thunderstorm
From Jul-18 @ 01:00 to Jul-18 @ 16:00
FM180100 22010KT P6SM SCT120 SCT250
Wind Visibility Clouds
220° at 10 knots Greater than 6 miles
  • Scattered at 12,000' AGL
  • Scattered at 25,000' AGL
From Jul-18 @ 16:00 to Jul-19 @ 00:00
FM181600 29015G25KT P6SM SCT250
Wind Visibility Clouds
290° at 15 knots
 Gusting to 25 knots
Greater than 6 miles
  • Scattered at 25,000' AGL
KLAR 172320Z 1800/1824 16010KT P6SM VCTS BKN050CB BKN100 FM180100 22010KT P6SM SCT120 SCT250 FM181600 29015G25KT P6SM SCT250
Issued Jul-17 @ 23:20 UTC
(6 hours ago)
Valid From Jul-18 @ 00:00 UTC
(5 hours ago)
Valid To Jul-19 @ 00:00 UTC
(in 19 hours)
Jul-18 @ 00:00 - Jul-18 @ 01:00
Wind Visibility
160° at 10 knots Greater than 6 miles
Clouds
  • Broken at 5,000' AGL
  • Broken at 10,000' AGL
Conditions
  • Area Thunderstorm
From Jul-18 @ 01:00 - Jul-18 @ 16:00
Wind Visibility
220° at 10 knots Greater than 6 miles
Clouds
  • Scattered at 12,000' AGL
  • Scattered at 25,000' AGL
From Jul-18 @ 16:00 - Jul-19 @ 00:00
Wind Visibility
290° at 15 knots
 Gusting to 25 knots
Greater than 6 miles
Clouds
  • Scattered at 25,000' AGL